Time;durP1;ratioP1;P1;durP2;ratioP2;P2;SDS_P1;SDS_P2;PMS_P1;PMS_P2;Temp;Humidity;BMP_temperature;BMP_pressure;BME280_temperature;BME280_humidity;BME280_pressure;Samples;Min_cycle;Max_cycle;Signal;HPM_P1;HPM_P2
2024/01/11 00:01:47;;;;;;;12.38;6.85;;;;;;;-4.52;69.52;103336.56;5085401;28;20053;-73
2024/01/11 00:04:14;;;;;;;15.40;8.35;;;;;;;-4.51;69.54;103338.13;5083692;28;20041;-74
2024/01/11 00:06:42;;;;;;;14.98;8.00;;;;;;;-4.53;69.70;103335.00;5086491;28;20500;-74
2024/01/11 00:09:08;;;;;;;14.65;7.72;;;;;;;-4.55;69.52;103334.50;5083004;28;20492;-74
2024/01/11 00:11:35;;;;;;;16.70;7.45;;;;;;;-4.58;69.59;103337.66;5079912;28;20051;-74
2024/01/11 00:14:02;;;;;;;15.57;7.13;;;;;;;-4.61;69.84;103335.59;5088069;28;20098;-73
2024/01/11 00:16:29;;;;;;;16.13;7.05;;;;;;;-4.64;69.96;103336.13;5086097;28;20044;-73
2024/01/11 00:18:55;;;;;;;10.52;6.80;;;;;;;-4.65;70.12;103337.19;5083742;28;20083;-73
2024/01/11 00:21:22;;;;;;;10.23;5.97;;;;;;;-4.67;69.66;103342.66;5083419;28;20578;-74
2024/01/11 00:23:49;;;;;;;12.30;6.55;;;;;;;-4.71;70.23;103332.03;5079358;28;20075;-74
2024/01/11 00:26:16;;;;;;;14.82;7.00;;;;;;;-4.72;70.16;103340.88;5084539;28;20049;-74
2024/01/11 00:28:42;;;;;;;11.93;6.15;;;;;;;-4.74;70.44;103337.75;5084861;28;20045;-75
2024/01/11 00:31:10;;;;;;;11.90;6.90;;;;;;;-4.78;70.62;103341.94;5085881;28;20072;-75
2024/01/11 00:33:37;;;;;;;10.65;6.10;;;;;;;-4.83;70.41;103342.00;5086082;28;20051;-75
2024/01/11 00:36:04;;;;;;;10.40;6.30;;;;;;;-4.86;70.62;103339.94;5083643;28;20084;-75
2024/01/11 00:38:30;;;;;;;14.82;7.07;;;;;;;-4.88;70.71;103333.47;5084844;28;20048;-75
2024/01/11 00:40:57;;;;;;;15.98;7.22;;;;;;;-4.89;70.88;103342.31;5086260;28;20052;-75
2024/01/11 00:43:23;;;;;;;11.70;6.63;;;;;;;-4.91;71.13;103336.59;5080613;28;20138;-75
2024/01/11 00:45:50;;;;;;;12.30;6.43;;;;;;;-4.94;71.09;103332.72;5084033;28;20044;-74
2024/01/11 00:48:16;;;;;;;9.68;6.40;;;;;;;-4.94;71.17;103327.53;5082942;28;20068;-75
2024/01/11 00:50:43;;;;;;;11.40;5.90;;;;;;;-4.97;71.41;103325.47;5084033;28;20053;-76
2024/01/11 00:53:11;;;;;;;14.60;7.53;;;;;;;-4.98;71.49;103329.13;5086503;28;20072;-74
2024/01/11 00:55:37;;;;;;;9.82;5.72;;;;;;;-4.97;71.75;103327.28;5078224;28;20055;-74
2024/01/11 00:58:04;;;;;;;13.52;7.88;;;;;;;-4.99;71.69;103331.97;5086402;28;20103;-73
2024/01/11 01:00:30;;;;;;;13.18;7.38;;;;;;;-5.03;71.71;103337.72;5083834;28;20041;-73
2024/01/11 01:02:57;;;;;;;13.40;7.07;;;;;;;-5.03;71.79;103331.75;5084139;28;20541;-73
2024/01/11 01:05:23;;;;;;;16.13;7.80;;;;;;;-5.05;72.05;103334.59;5084022;28;20040;-73
2024/01/11 01:07:50;;;;;;;13.57;6.20;;;;;;;-5.06;72.10;103333.06;5084271;28;20052;-75
2024/01/11 01:10:17;;;;;;;14.20;6.72;;;;;;;-5.05;72.34;103339.03;5081371;28;20045;-75
2024/01/11 01:12:43;;;;;;;15.50;7.47;;;;;;;-5.05;72.48;103339.81;5084853;28;20480;-75
2024/01/11 01:15:10;;;;;;;12.75;7.25;;;;;;;-5.07;72.52;103333.31;5081847;28;20041;-74
2024/01/11 01:17:37;;;;;;;11.55;7.07;;;;;;;-5.05;72.55;103345.00;5084515;28;20048;-75
2024/01/11 01:20:04;;;;;;;11.88;6.70;;;;;;;-5.04;72.72;103343.97;5082715;28;20182;-75
2024/01/11 01:22:31;;;;;;;10.60;6.32;;;;;;;-5.00;72.78;103346.03;5082284;28;20059;-75
2024/01/11 01:24:57;;;;;;;10.43;6.57;;;;;;;-5.02;72.68;103346.28;5083224;28;20060;-75
2024/01/11 01:27:24;;;;;;;17.88;7.10;;;;;;;-5.03;72.81;103345.50;5084092;28;20131;-74
2024/01/11 01:29:51;;;;;;;17.17;6.88;;;;;;;-5.05;72.97;103358.00;5084069;28;20087;-74
2024/01/11 01:32:17;;;;;;;11.63;6.68;;;;;;;-5.08;73.05;103352.56;5085709;28;20149;-75
2024/01/11 01:34:44;;;;;;;8.95;5.80;;;;;;;-5.08;73.15;103350.72;5085992;28;20058;-75
2024/01/11 01:37:14;;;;;;;12.70;6.53;;;;;;;-5.08;73.06;103355.16;5080601;28;20071;-75
2024/01/11 01:39:41;;;;;;;9.48;5.85;;;;;;;-5.11;73.31;103353.88;5081573;28;20439;-75
2024/01/11 01:42:07;;;;;;;13.15;7.38;;;;;;;-5.12;73.47;103349.72;5083675;28;20118;-74
2024/01/11 01:44:34;;;;;;;10.93;6.30;;;;;;;-5.10;73.67;103352.03;5079705;28;20036;-75
2024/01/11 01:47:04;;;;;;;10.30;6.88;;;;;;;-5.08;73.67;103353.34;5084472;28;20151;-74
2024/01/11 01:49:31;;;;;;;12.73;6.75;;;;;;;-5.07;73.78;103359.31;5084056;28;20103;-75
2024/01/11 01:51:58;;;;;;;10.20;5.85;;;;;;;-5.08;73.89;103365.53;5084253;28;20490;-74
2024/01/11 01:54:25;;;;;;;14.93;7.20;;;;;;;-5.09;73.92;103366.59;5086171;28;20044;-74
2024/01/11 01:56:53;;;;;;;11.30;6.65;;;;;;;-5.09;74.12;103364.75;5078711;28;20103;-75
2024/01/11 01:59:20;;;;;;;17.80;7.45;;;;;;;-5.10;74.04;103368.41;5080688;28;20053;-75
2024/01/11 02:01:47;;;;;;;12.15;7.00;;;;;;;-5.12;74.16;103361.94;5084394;28;20121;-75
2024/01/11 02:04:15;;;;;;;23.65;7.63;;;;;;;-5.14;74.10;103372.59;5078463;28;20044;-75
2024/01/11 02:06:44;;;;;;;11.73;6.47;;;;;;;-5.15;74.27;103372.84;5081897;28;20489;-75
2024/01/11 02:09:13;;;;;;;12.48;6.82;;;;;;;-5.15;74.34;103372.84;5081337;28;20056;-75
2024/01/11 02:11:41;;;;;;;13.60;7.50;;;;;;;-5.16;74.39;103374.66;5084234;28;20161;-75
2024/01/11 02:14:08;;;;;;;17.75;7.55;;;;;;;-5.19;74.18;103387.41;5084817;28;20103;-74
2024/01/11 02:16:36;;;;;;;16.30;8.30;;;;;;;-5.23;74.57;103383.81;5086100;28;20041;-74
2024/01/11 02:19:04;;;;;;;12.27;7.40;;;;;;;-5.29;74.88;103385.66;5077624;28;20045;-75
2024/01/11 02:21:33;;;;;;;14.15;7.03;;;;;;;-5.32;74.83;103385.41;5083873;28;20044;-74
2024/01/11 02:24:03;;;;;;;15.05;7.85;;;;;;;-5.35;75.09;103384.13;5082098;28;20594;-75
2024/01/11 02:26:30;;;;;;;13.68;8.15;;;;;;;-5.35;75.28;103378.16;5083921;28;20119;-75
2024/01/11 02:28:57;;;;;;;13.15;7.22;;;;;;;-5.34;75.46;103375.31;5082107;28;20075;-75
2024/01/11 02:31:24;;;;;;;12.85;7.13;;;;;;;-5.34;75.55;103364.13;5082372;28;20103;-74
2024/01/11 02:33:52;;;;;;;13.65;6.97;;;;;;;-5.38;75.76;103364.66;5086164;28;20110;-74
2024/01/11 02:36:23;;;;;;;14.18;7.90;;;;;;;-5.41;75.79;103367.78;5078704;28;20427;-74
2024/01/11 02:38:51;;;;;;;12.90;7.27;;;;;;;-5.43;75.98;103369.88;5078872;28;20049;-74
2024/01/11 02:41:18;;;;;;;14.70;8.05;;;;;;;-5.44;76.40;103362.34;5078873;28;20044;-74
2024/01/11 02:43:48;;;;;;;11.65;7.45;;;;;;;-5.45;76.40;103366.78;5085632;28;20045;-74
2024/01/11 02:46:16;;;;;;;14.35;8.15;;;;;;;-5.47;76.30;103358.47;5084579;28;20140;-74
2024/01/11 02:48:43;;;;;;;13.90;7.80;;;;;;;-5.49;76.52;103360.56;5085398;28;20090;-74
2024/01/11 02:51:10;;;;;;;18.27;8.10;;;;;;;-5.51;76.61;103354.06;5087732;28;20047;-75
2024/01/11 02:53:37;;;;;;;17.35;7.78;;;;;;;-5.51;76.69;103357.44;5085393;28;20041;-74
2024/01/11 02:56:04;;;;;;;14.52;7.68;;;;;;;-5.49;77.05;103349.41;5083176;28;20072;-74
2024/01/11 02:58:30;;;;;;;11.90;7.10;;;;;;;-5.50;76.95;103351.22;5082256;28;20602;-74
2024/01/11 03:00:57;;;;;;;14.20;8.55;;;;;;;-5.51;77.23;103348.88;5084616;28;20036;-74
2024/01/11 03:03:24;;;;;;;18.00;7.60;;;;;;;-5.53;77.53;103362.13;5078615;28;20052;-75
2024/01/11 03:05:50;;;;;;;13.93;8.00;;;;;;;-5.52;77.57;103358.50;5084189;28;20102;-74
2024/01/11 03:08:17;;;;;;;13.05;8.27;;;;;;;-5.50;77.73;103355.63;5084820;28;20049;-74
2024/01/11 03:10:45;;;;;;;16.17;8.85;;;;;;;-5.53;77.99;103350.97;5079872;28;20053;-74
2024/01/11 03:13:12;;;;;;;18.42;8.18;;;;;;;-5.55;78.01;103358.25;5082291;28;20057;-74
2024/01/11 03:15:39;;;;;;;15.60;8.93;;;;;;;-5.57;78.19;103360.31;5081179;28;20045;-74
2024/01/11 03:18:05;;;;;;;19.55;8.70;;;;;;;-5.56;78.59;103372.25;5081450;28;20044;-75
2024/01/11 03:20:32;;;;;;;14.13;8.13;;;;;;;-5.57;78.71;103375.91;5081865;28;20040;-74
2024/01/11 03:22:59;;;;;;;14.95;8.20;;;;;;;-5.58;78.73;103377.72;5084219;28;20049;-74
2024/01/11 03:25:25;;;;;;;17.40;9.27;;;;;;;-5.57;78.91;103373.31;5081337;28;20496;-75
2024/01/11 03:27:52;;;;;;;18.48;9.10;;;;;;;-5.56;79.14;103378.22;5079683;28;20045;-74
2024/01/11 03:30:19;;;;;;;15.32;8.32;;;;;;;-5.55;79.01;103377.19;5082411;28;20048;-74
2024/01/11 03:32:45;;;;;;;20.15;9.77;;;;;;;-5.53;79.34;103369.91;5082259;28;20511;-74
2024/01/11 03:35:12;;;;;;;17.45;9.32;;;;;;;-5.52;79.50;103362.91;5080595;28;20479;-75
2024/01/11 03:37:39;;;;;;;17.50;8.95;;;;;;;-5.51;79.66;103385.22;5085476;28;20052;-74
2024/01/11 03:40:06;;;;;;;20.75;9.68;;;;;;;-5.55;79.74;103382.38;5082323;28;20430;-75
2024/01/11 03:42:33;;;;;;;18.42;9.23;;;;;;;-5.57;80.40;103378.50;5076991;28;20055;-75
2024/01/11 03:44:59;;;;;;;21.38;10.95;;;;;;;-5.55;80.16;103376.41;5085159;28;20043;-74
2024/01/11 03:47:26;;;;;;;18.17;8.68;;;;;;;-5.54;80.12;103380.56;5080484;28;20128;-74
2024/01/11 03:49:53;;;;;;;17.75;9.88;;;;;;;-5.56;80.17;103375.63;5082479;28;20040;-74
2024/01/11 03:52:20;;;;;;;18.95;10.07;;;;;;;-5.60;80.54;103369.44;5076807;28;20041;-75
2024/01/11 03:54:46;;;;;;;23.00;9.77;;;;;;;-5.60;80.61;103373.84;5083458;28;20362;-74
2024/01/11 03:57:13;;;;;;;20.75;11.15;;;;;;;-5.58;80.65;103376.94;5081931;28;20056;-74
2024/01/11 03:59:41;;;;;;;23.75;10.70;;;;;;;-5.59;81.07;103383.16;5082540;28;20121;-73
2024/01/11 04:02:07;;;;;;;22.67;10.90;;;;;;;-5.58;81.34;103392.50;5084022;28;20045;-74
2024/01/11 04:04:34;;;;;;;21.35;11.02;;;;;;;-5.61;81.38;103387.88;5090925;28;20906;-74
2024/01/11 04:07:01;;;;;;;17.35;10.15;;;;;;;-5.62;81.60;103392.28;5088207;28;20053;-74
2024/01/11 04:09:27;;;;;;;21.85;11.27;;;;;;;-5.64;81.84;103389.19;5086866;28;20923;-74
2024/01/11 04:11:54;;;;;;;21.13;11.60;;;;;;;-5.67;82.12;103384.53;5081336;28;20051;-73
2024/01/11 04:14:21;;;;;;;20.23;11.63;;;;;;;-5.66;82.09;103395.69;5082313;28;20181;-74
2024/01/11 04:16:47;;;;;;;22.88;12.75;;;;;;;-5.67;82.38;103397.50;5081622;28;20039;-73
2024/01/11 04:19:14;;;;;;;24.48;11.85;;;;;;;-5.67;82.72;103401.91;5083106;28;20049;-74
2024/01/11 04:21:41;;;;;;;20.17;11.27;;;;;;;-5.68;82.58;103405.53;5084808;28;20048;-73
2024/01/11 04:24:08;;;;;;;23.65;11.75;;;;;;;-5.68;82.96;103405.53;5086793;28;20128;-74
2024/01/11 04:26:34;;;;;;;19.88;11.05;;;;;;;-5.69;83.20;103404.00;5080224;28;20068;-74
2024/01/11 04:29:01;;;;;;;26.05;11.63;;;;;;;-5.71;83.35;103410.22;5088074;28;20047;-74
2024/01/11 04:31:28;;;;;;;21.25;11.13;;;;;;;-5.72;83.44;103418.25;5088096;28;20074;-82
2024/01/11 04:33:56;;;;;;;25.55;11.20;;;;;;;-5.74;83.93;103415.94;5097555;28;20068;-83
2024/01/11 04:36:23;;;;;;;25.48;13.20;;;;;;;-5.72;83.93;103403.47;5099723;28;20053;-82
2024/01/11 04:38:49;;;;;;;25.95;14.13;;;;;;;-5.72;83.79;103420.84;5091755;28;20045;-82
2024/01/11 04:41:16;;;;;;;26.70;12.18;;;;;;;-5.73;84.12;103421.91;5094584;28;20571;-82
2024/01/11 04:43:44;;;;;;;21.15;11.20;;;;;;;-5.73;84.19;103411.53;5093907;28;20049;-83
2024/01/11 04:46:18;;;;;;;23.42;12.40;;;;;;;-5.72;84.64;103426.81;5086225;28;20786;-83
2024/01/11 04:48:45;;;;;;;23.73;12.93;;;;;;;-5.71;84.69;103425.00;5088179;28;20053;-82
2024/01/11 04:51:13;;;;;;;22.63;11.77;;;;;;;-5.69;84.89;103427.34;5102018;28;20045;-81
2024/01/11 04:53:40;;;;;;;27.65;12.85;;;;;;;-5.63;85.24;103428.88;5097051;28;20127;-82
2024/01/11 04:56:08;;;;;;;22.77;12.38;;;;;;;-5.64;85.10;103424.75;5101627;28;20041;-81
2024/01/11 04:58:36;;;;;;;27.10;12.45;;;;;;;-5.62;85.34;103425.25;5095827;28;20044;-81
2024/01/11 05:01:03;;;;;;;25.25;12.10;;;;;;;-5.60;85.01;103430.97;5105029;28;20059;-81
2024/01/11 05:03:31;;;;;;;20.85;11.38;;;;;;;-5.63;85.35;103432.25;5090939;28;20040;-81
2024/01/11 05:05:59;;;;;;;22.48;12.52;;;;;;;-5.62;85.56;103417.47;5088878;28;20080;-82
2024/01/11 05:08:27;;;;;;;20.92;10.65;;;;;;;-5.62;85.65;103410.47;5075629;28;20517;-82
2024/01/11 05:10:54;;;;;;;21.67;11.68;;;;;;;-5.62;85.67;103414.88;5092715;28;20452;-82
2024/01/11 05:13:22;;;;;;;29.58;12.55;;;;;;;-5.60;85.91;103413.56;5092519;28;20542;-81
2024/01/11 05:15:49;;;;;;;20.08;11.48;;;;;;;-5.59;85.95;103409.13;5091577;28;20128;-81
2024/01/11 05:18:15;;;;;;;27.13;14.20;;;;;;;-5.59;85.94;103414.31;5091383;28;20122;-80
2024/01/11 05:20:42;;;;;;;32.20;13.50;;;;;;;-5.59;86.16;103420.28;5089184;28;20040;-81
2024/01/11 05:23:08;;;;;;;26.00;13.23;;;;;;;-5.60;86.06;103421.34;5092706;28;20549;-81
2024/01/11 05:25:37;;;;;;;22.08;12.18;;;;;;;-5.59;85.86;103411.72;5084959;28;20045;-81
2024/01/11 05:28:03;;;;;;;26.85;12.23;;;;;;;-5.57;86.13;103404.44;5082792;28;20059;-80
2024/01/11 05:30:30;;;;;;;29.48;12.57;;;;;;;-5.56;86.19;103400.81;5085077;28;20048;-73
2024/01/11 05:32:58;;;;;;;25.13;14.20;;;;;;;-5.57;86.08;103388.88;5083886;28;20107;-74
2024/01/11 05:35:27;;;;;;;23.77;12.50;;;;;;;-5.56;86.33;103388.63;5085666;28;20048;-74
2024/01/11 05:37:57;;;;;;;24.42;12.82;;;;;;;-5.54;86.13;103378.75;5086261;28;20103;-73
2024/01/11 05:40:23;;;;;;;24.83;13.07;;;;;;;-5.52;85.77;103375.88;5083995;28;20126;-74
2024/01/11 05:42:50;;;;;;;27.52;11.85;;;;;;;-5.50;86.01;103390.16;5083647;28;20928;-74
2024/01/11 05:45:17;;;;;;;25.90;13.00;;;;;;;-5.50;85.92;103407.53;5082113;28;20052;-74
2024/01/11 05:47:48;;;;;;;30.90;13.65;;;;;;;-5.50;85.87;103402.34;5081744;28;20103;-74
2024/01/11 05:50:15;;;;;;;27.52;13.32;;;;;;;-5.50;85.88;103397.16;5086032;28;20558;-74
2024/01/11 05:52:42;;;;;;;24.77;12.68;;;;;;;-5.53;85.64;103384.72;5082848;28;20120;-74
2024/01/11 05:55:08;;;;;;;25.17;12.73;;;;;;;-5.53;85.56;103395.09;5079367;28;20041;-73
2024/01/11 05:57:35;;;;;;;23.23;12.32;;;;;;;-5.55;85.87;103410.94;5085366;28;20049;-74
2024/01/11 06:00:02;;;;;;;27.52;13.00;;;;;;;-5.55;85.50;103420.53;5084394;28;20053;-73
2024/01/11 06:02:31;;;;;;;27.73;13.05;;;;;;;-5.56;85.47;103421.56;5082931;28;20166;-74
2024/01/11 06:04:58;;;;;;;22.95;11.98;;;;;;;-5.56;85.61;103421.56;5080996;28;20050;-74
2024/01/11 06:07:25;;;;;;;26.58;13.77;;;;;;;-5.57;85.86;103427.81;5084103;28;20526;-73
2024/01/11 06:09:52;;;;;;;21.45;12.32;;;;;;;-5.57;85.69;103425.22;5083940;28;20397;-73
2024/01/11 06:12:19;;;;;;;22.58;12.52;;;;;;;-5.59;85.73;103435.09;5084398;28;20098;-73
2024/01/11 06:14:46;;;;;;;25.02;13.00;;;;;;;-5.61;85.83;103432.78;5083411;28;20139;-74
2024/01/11 06:17:12;;;;;;;27.05;13.32;;;;;;;-5.62;85.98;103439.00;5082766;28;20041;-73
2024/01/11 06:19:39;;;;;;;25.48;13.20;;;;;;;-5.63;85.84;103445.25;5085755;28;20041;-73
2024/01/11 06:22:06;;;;;;;28.35;13.52;;;;;;;-5.63;85.89;103465.22;5083112;28;20124;-73
2024/01/11 06:24:32;;;;;;;24.35;12.90;;;;;;;-5.64;85.89;103482.63;5085697;28;20056;-73
2024/01/11 06:26:59;;;;;;;25.50;12.57;;;;;;;-5.67;85.94;103488.31;5082605;28;20079;-74
2024/01/11 06:29:26;;;;;;;30.98;14.20;;;;;;;-5.68;86.23;103488.59;5081689;28;20041;-73
2024/01/11 06:31:52;;;;;;;31.52;14.02;;;;;;;-5.73;86.22;103484.97;5080315;28;20084;-73
2024/01/11 06:34:19;;;;;;;21.17;11.85;;;;;;;-5.74;85.89;103485.22;5083338;28;20120;-73
2024/01/11 06:36:45;;;;;;;23.67;13.43;;;;;;;-5.74;86.30;103491.19;5082776;28;20041;-73
2024/01/11 06:39:12;;;;;;;29.35;14.23;;;;;;;-5.76;86.34;103506.25;5085855;28;20044;-74
2024/01/11 06:41:39;;;;;;;26.60;13.25;;;;;;;-5.79;86.48;103498.97;5089878;28;20197;-74
2024/01/11 06:44:06;;;;;;;26.25;12.52;;;;;;;-5.79;86.41;103509.34;5080765;28;20045;-74
2024/01/11 06:46:32;;;;;;;28.15;12.85;;;;;;;-5.79;86.49;103500.78;5081677;28;20048;-74
2024/01/11 06:48:59;;;;;;;26.92;13.32;;;;;;;-5.79;86.29;103498.97;5083877;28;20131;-74
2024/01/11 06:51:26;;;;;;;28.55;13.23;;;;;;;-5.77;86.39;103502.09;5082657;28;20045;-75
2024/01/11 06:53:53;;;;;;;25.45;13.57;;;;;;;-5.78;86.23;103500.53;5084201;28;20090;-74
2024/01/11 06:56:20;;;;;;;26.08;13.68;;;;;;;-5.80;86.41;103504.41;5080191;28;20466;-74
2024/01/11 06:58:48;;;;;;;30.70;13.32;;;;;;;-5.81;86.73;103508.06;5081612;28;20044;-74
2024/01/11 07:01:14;;;;;;;21.85;12.95;;;;;;;-5.80;86.29;103515.56;5080548;28;20041;-74
2024/01/11 07:03:41;;;;;;;21.67;12.57;;;;;;;-5.80;86.41;103509.59;5082201;28;20049;-74
2024/01/11 07:06:08;;;;;;;27.50;14.23;;;;;;;-5.81;86.45;103519.22;5086271;28;20043;-74
2024/01/11 07:08:35;;;;;;;24.55;13.43;;;;;;;-5.82;86.73;103522.06;5081247;28;20550;-73
2024/01/11 07:11:02;;;;;;;26.90;13.18;;;;;;;-5.82;86.56;103509.88;5082498;28;20132;-74
2024/01/11 07:13:32;;;;;;;29.38;13.77;;;;;;;-5.82;86.58;103512.47;5082517;28;20431;-75
2024/01/11 07:15:59;;;;;;;29.15;13.20;;;;;;;-5.80;86.49;103505.19;5082095;28;20542;-77
2024/01/11 07:18:26;;;;;;;22.42;12.38;;;;;;;-5.79;86.82;103498.19;5082140;28;20040;-76
2024/01/11 07:20:55;;;;;;;27.90;12.50;;;;;;;-5.77;86.94;103496.91;5077924;28;20574;-76
2024/01/11 07:23:22;;;;;;;26.05;14.68;;;;;;;-5.75;86.64;103483.66;5076956;28;20072;-77
2024/01/11 07:25:49;;;;;;;29.85;13.25;;;;;;;-5.74;86.93;103480.03;5086383;28;20032;-77
2024/01/11 07:28:17;;;;;;;30.85;14.18;;;;;;;-5.70;86.90;103486.25;5082574;28;20451;-74
2024/01/11 07:30:43;;;;;;;27.75;12.70;;;;;;;-5.67;86.79;103474.56;5081021;28;20048;-73
2024/01/11 07:33:10;;;;;;;24.52;13.02;;;;;;;-5.63;86.69;103465.22;5084978;28;20447;-71
2024/01/11 07:35:37;;;;;;;25.33;12.18;;;;;;;-5.62;86.71;103466.78;5082516;28;20124;-73
2024/01/11 07:38:04;;;;;;;22.65;11.82;;;;;;;-5.61;86.60;103465.75;5082711;28;20079;-73
2024/01/11 07:40:31;;;;;;;27.38;13.25;;;;;;;-5.62;86.67;103480.53;5080131;28;20092;-73
2024/01/11 07:43:03;;;;;;;26.25;14.23;;;;;;;-5.62;86.60;103482.34;5083277;28;20055;-72
2024/01/11 07:45:30;;;;;;;27.70;14.02;;;;;;;-5.61;86.68;103486.50;5079486;28;20043;-73
2024/01/11 07:47:56;;;;;;;26.25;13.13;;;;;;;-5.64;86.68;103487.03;5084901;28;20044;-73
2024/01/11 07:50:23;;;;;;;25.75;13.27;;;;;;;-5.66;86.61;103478.72;5083757;28;20099;-74
2024/01/11 07:52:50;;;;;;;23.25;13.05;;;;;;;-5.67;86.84;103484.94;5082822;28;20056;-74
2024/01/11 07:55:17;;;;;;;26.85;14.00;;;;;;;-5.68;86.85;103478.22;5081781;28;20394;-75
2024/01/11 07:57:44;;;;;;;24.80;13.40;;;;;;;-5.67;86.96;103483.13;5086898;28;20096;-74
2024/01/11 08:00:10;;;;;;;33.65;14.18;;;;;;;-5.66;87.01;103483.91;5082099;28;20045;-77
2024/01/11 08:02:40;;;;;;;26.85;13.02;;;;;;;-5.65;86.99;103486.25;5085080;28;20037;-74
2024/01/11 08:05:07;;;;;;;24.73;12.70;;;;;;;-5.61;87.51;103496.88;5085569;28;20138;-73
2024/01/11 08:07:35;;;;;;;31.15;16.10;;;;;;;-5.62;87.38;103490.16;5083962;28;20128;-73
2024/01/11 08:10:03;;;;;;;27.95;14.25;;;;;;;-5.62;87.46;103487.53;5086246;28;20123;-73
2024/01/11 08:12:30;;;;;;;36.10;15.18;;;;;;;-5.62;87.39;103484.94;5084307;28;20451;-73
2024/01/11 08:14:58;;;;;;;31.42;16.17;;;;;;;-5.61;87.41;103482.09;5089536;28;20140;-79
2024/01/11 08:17:24;;;;;;;31.02;14.65;;;;;;;-5.61;87.56;103487.28;5093432;28;20051;-79
2024/01/11 08:19:52;;;;;;;32.75;14.40;;;;;;;-5.57;87.77;103480.50;5097399;28;20049;-80
2024/01/11 08:22:19;;;;;;;32.80;13.95;;;;;;;-5.55;87.90;103477.66;5100893;28;20076;-78
2024/01/11 08:24:52;;;;;;;29.52;14.68;;;;;;;-5.52;87.92;103488.28;5092290;28;20057;-78
2024/01/11 08:27:19;;;;;;;27.98;14.20;;;;;;;-5.49;88.11;103476.59;5086610;28;20112;-78
2024/01/11 08:29:46;;;;;;;35.38;16.17;;;;;;;-5.46;87.98;103486.47;5090303;28;20132;-78
2024/01/11 08:32:13;;;;;;;33.15;15.43;;;;;;;-5.45;87.84;103490.59;5072697;28;20048;-79
2024/01/11 08:34:59;;;;;;;27.52;15.20;;;;;;;-5.41;88.39;103499.44;5073201;28;20113;-81
2024/01/11 08:37:27;;;;;;;30.45;15.25;;;;;;;-5.41;88.13;103505.41;5079521;28;20508;-80
2024/01/11 08:39:54;;;;;;;25.20;13.35;;;;;;;-5.36;88.50;103502.03;5095195;28;20076;-79
2024/01/11 08:42:22;;;;;;;31.38;15.57;;;;;;;-5.32;88.47;103510.06;5077871;28;20034;-79
2024/01/11 08:44:48;;;;;;;30.35;14.77;;;;;;;-5.31;88.41;103511.63;5091844;28;20847;-80
2024/01/11 08:47:15;;;;;;;29.77;15.27;;;;;;;-5.28;88.57;103513.69;5099170;28;20818;-79
2024/01/11 08:49:42;;;;;;;26.83;14.27;;;;;;;-5.26;88.51;103529.78;5112745;28;20037;-82
2024/01/11 08:52:09;;;;;;;28.08;13.95;;;;;;;-5.23;88.51;103535.22;5111059;28;20029;-80
2024/01/11 08:54:36;;;;;;;28.25;14.32;;;;;;;-5.20;88.51;103542.50;5093093;28;20104;-82
2024/01/11 08:57:03;;;;;;;35.17;16.02;;;;;;;-5.19;88.49;103531.03;5093062;28;20045;-82
2024/01/11 08:59:37;;;;;;;29.67;14.80;;;;;;;-5.15;88.78;103547.66;5089563;28;20048;-79
2024/01/11 09:02:04;;;;;;;33.70;15.63;;;;;;;-5.11;88.77;103556.47;5087048;28;20072;-81
2024/01/11 09:04:42;;;;;;;34.95;16.13;;;;;;;-5.08;88.57;103568.16;5097968;28;20045;-80
2024/01/11 09:07:10;;;;;;;30.55;14.48;;;;;;;-5.03;88.82;103561.13;5100403;28;20076;-81
2024/01/11 09:09:36;;;;;;;32.22;15.07;;;;;;;-4.98;88.67;103572.56;5091312;28;20060;-80
2024/01/11 09:12:17;;;;;;;27.40;14.23;;;;;;;-4.92;88.82;103567.09;5087329;28;20106;-80
2024/01/11 09:14:44;;;;;;;29.67;15.73;;;;;;;-4.89;88.69;103573.59;5092850;28;20520;-73
2024/01/11 09:17:11;;;;;;;26.95;14.40;;;;;;;-4.86;88.61;103573.06;5081529;28;20535;-73
2024/01/11 09:19:39;;;;;;;30.05;14.70;;;;;;;-4.83;88.59;103570.72;5082850;28;20043;-72
2024/01/11 09:22:09;;;;;;;29.50;13.77;;;;;;;-4.77;88.44;103576.63;5078377;28;20049;-73
2024/01/11 09:24:36;;;;;;;29.40;14.40;;;;;;;-4.68;88.66;103569.06;5083015;28;20128;-74
2024/01/11 09:27:05;;;;;;;26.08;13.68;;;;;;;-4.55;88.92;103568.50;5079853;28;20121;-73
2024/01/11 09:29:32;;;;;;;27.10;13.35;;;;;;;-4.48;89.39;103569.78;5081183;28;20044;-73
2024/01/11 09:31:59;;;;;;;28.88;14.05;;;;;;;-4.40;89.81;103582.19;5082655;28;20431;-73
2024/01/11 09:34:26;;;;;;;25.52;13.30;;;;;;;-4.31;90.30;103579.81;5081510;28;20088;-72
2024/01/11 09:36:53;;;;;;;24.95;13.07;;;;;;;-4.24;90.60;103579.50;5085213;28;20071;-72
2024/01/11 09:39:19;;;;;;;28.02;13.05;;;;;;;-4.17;91.40;103567.00;5080725;28;20045;-72
2024/01/11 09:41:58;;;;;;;30.60;13.15;;;;;;;-4.07;92.27;103583.31;5084499;28;20402;-72
2024/01/11 09:44:26;;;;;;;31.33;12.43;;;;;;;-3.98;92.73;103580.91;5082501;28;20274;-71
2024/01/11 09:46:54;;;;;;;26.05;13.07;;;;;;;-3.90;93.21;103576.94;5085644;28;20083;-72
2024/01/11 09:49:22;;;;;;;23.80;12.70;;;;;;;-3.84;93.58;103583.66;5078771;28;20068;-72
2024/01/11 09:51:50;;;;;;;26.77;13.57;;;;;;;-3.79;94.55;103587.03;5085246;28;20044;-72
2024/01/11 09:54:20;;;;;;;26.75;12.57;;;;;;;-3.73;94.94;103592.97;5075461;28;20048;-72
2024/01/11 09:56:50;;;;;;;24.63;12.45;;;;;;;-3.68;95.57;103590.31;5081542;28;20500;-72
2024/01/11 09:59:24;;;;;;;26.48;12.52;;;;;;;-3.63;96.12;103592.13;5080985;28;20139;-72
2024/01/11 10:01:51;;;;;;;29.27;12.85;;;;;;;-3.56;96.33;103588.13;5084974;28;20056;-72
2024/01/11 10:04:17;;;;;;;32.70;13.10;;;;;;;-3.48;96.89;103586.75;5083611;28;20496;-72
2024/01/11 10:06:45;;;;;;;32.65;12.88;;;;;;;-3.45;97.21;103592.19;5082708;28;20156;-72
2024/01/11 10:09:12;;;;;;;34.75;13.55;;;;;;;-3.40;97.60;103599.97;5083590;28;20079;-72
2024/01/11 10:11:39;;;;;;;24.70;12.18;;;;;;;-3.33;97.90;103594.44;5078408;28;20049;-72
2024/01/11 10:14:08;;;;;;;26.92;12.77;;;;;;;-3.28;98.35;103602.22;5079696;28;20187;-72
2024/01/11 10:16:35;;;;;;;25.90;12.35;;;;;;;-3.22;98.46;103597.75;5083639;28;20090;-72
2024/01/11 10:19:01;;;;;;;21.98;11.43;;;;;;;-3.16;99.41;103602.59;5077090;28;20091;-72
2024/01/11 10:21:30;;;;;;;31.45;13.15;;;;;;;-3.10;99.25;103600.72;5083257;28;20524;-72
2024/01/11 10:23:58;;;;;;;32.10;12.93;;;;;;;-2.95;99.79;103595.38;5080835;28;20045;-75
2024/01/11 10:26:24;;;;;;;31.20;13.77;;;;;;;-2.86;100.00;103591.09;5082240;28;20118;-75
2024/01/11 10:28:51;;;;;;;27.92;12.43;;;;;;;-2.80;100.00;103597.78;5083274;28;20052;-74
2024/01/11 10:31:18;;;;;;;28.92;11.98;;;;;;;-2.73;100.00;103593.00;5082667;28;20040;-74
2024/01/11 10:33:45;;;;;;;26.27;11.23;;;;;;;-2.67;100.00;103596.34;5081067;28;20120;-74
2024/01/11 10:36:12;;;;;;;28.73;12.98;;;;;;;-2.59;100.00;103597.56;5082609;28;20045;-74
2024/01/11 10:38:39;;;;;;;32.22;12.82;;;;;;;-2.53;100.00;103596.44;5083539;28;20559;-74
2024/01/11 10:41:07;;;;;;;24.33;10.90;;;;;;;-2.47;100.00;103592.72;5083312;28;20049;-75
2024/01/11 10:43:37;;;;;;;26.88;12.38;;;;;;;-2.42;100.00;103597.88;5081320;28;20114;-74
2024/01/11 10:46:06;;;;;;;28.17;13.07;;;;;;;-2.38;100.00;103597.00;5083358;28;20075;-74
2024/01/11 10:48:43;;;;;;;26.80;12.20;;;;;;;-2.29;100.00;103599.00;5082724;28;20032;-74
2024/01/11 10:51:15;;;;;;;26.55;11.40;;;;;;;-2.24;100.00;103606.75;5081976;28;20440;-74
2024/01/11 10:53:46;;;;;;;25.33;11.43;;;;;;;-2.22;100.00;103607.25;5085048;28;20045;-74
2024/01/11 10:56:16;;;;;;;27.17;12.45;;;;;;;-2.16;100.00;103606.13;5084101;28;20496;-74
2024/01/11 10:58:44;;;;;;;25.30;12.38;;;;;;;-2.11;100.00;103612.06;5087595;28;20105;-74
2024/01/11 11:01:12;;;;;;;26.30;11.98;;;;;;;-2.05;100.00;103604.94;5083287;28;20054;-74
2024/01/11 11:03:42;;;;;;;32.38;12.68;;;;;;;-1.99;100.00;103605.59;5081692;28;20048;-75
2024/01/11 11:06:11;;;;;;;25.98;11.77;;;;;;;-1.93;100.00;103614.91;5080858;28;20041;-75
2024/01/11 11:08:39;;;;;;;24.20;11.27;;;;;;;-1.89;100.00;103616.69;5082371;28;20048;-76
2024/01/11 11:11:07;;;;;;;21.08;10.52;;;;;;;-1.86;100.00;103612.72;5079694;28;20128;-75
2024/01/11 11:13:34;;;;;;;23.98;11.88;;;;;;;-1.84;100.00;103626.28;5080958;28;20179;-76